Airfield :
LOGIN :

Register | Disclaimer

   EN    FR    IT 

 










Legend :    VFR   Marginal VFR   IFR   Intensive IFR   Very Intensive IFR
Visi :
Ceiling :
>= 8 km
>= 3000ft
5 to 8 km
1000 to 3000 ft
1500m to 5 km
500 to 1000 ft
800 to 1500m
200 to 500 ft
< 800m
< 200 ft
Symbols :   Thunderstorms  Fog  Heavy snow  Heavy precipitations  Wind > 20 kt
SIGMETs :     Misc.  Thunderstorms  Icing  Turbulence  Mountain Waves  Volcanic Ashes







- Airport Elevation : 74 ft
- IATA code : EIN


EHEH - Eindhoven

CURRENT METAR :
  • 251925Z AUTO 28009KT 230V350 9999 BKN061 OVC310 30/21 Q1018 BLU 280005KT CAVOK

EXPIRED METARs :
  • 251855Z AUTO 24006KT 200V270 9999 BKN058 OVC063 31/19 Q1017 BLU 25005KT CAVOK
  • 251825Z AUTO 25005KT 220V280 9999 FEW057 OVC360 32/19 Q1017 BLU 25008KT CAVOK
  • 251755Z AUTO 26006KT 9999 OVC360 33/19 Q1017 BLU 25008KT CAVOK
  • 251725Z AUTO 24009KT 200V280 9999 OVC370 33/18 Q1017 BLU 25008KT CAVOK
  • 251655Z AUTO 22009KT 190V250 9999 OVC340 34/19 Q1016 BLU 25008KT CAVOK

TAF TAF EHEH
Valid from the 25 at 18:00 until the 27 at 00:00 UTC


251727Z 2518/2624 21008KT CAVOK
BECMG 2518/2520 29008KT
PROB30
TEMPO 2604/2607 BKN007
BECMG 2605/2608 33005KT
BECMG 2613/2616 02010KT
No reported NOTAMs for that airfield.



MET'MAP, your aeronautical weather chart ! - Copyright ORBIFLY December 2007 - Disclaimer

ORBIFLY MET'MAP TEAM :

Programming & Development : Alexandra Zaïnal
Concept & Development : Baudouin d'Aumeries
Co-Development & Prog : Marc-Olivier Méhu
Technical & hardware support : Manuel Goepfert

Contact : metmap@orbifly.com




SOURCES & CREDITS :

   NOAA